Time;durP1;ratioP1;P1;durP2;ratioP2;P2;SDS_P1;SDS_P2;PMS_P1;PMS_P2;Temp;Humidity;BMP_temperature;BMP_pressure;BME280_temperature;BME280_humidity;BME280_pressure;Samples;Min_cycle;Max_cycle;Signal;HPM_P1;HPM_P2
2023/11/01 00:01:22;;;;;;;11.97;11.43;;;11.40;1.00;;;;;;5079681;28;20542;-83
2023/11/01 00:03:52;;;;;;;10.80;10.40;;;11.40;1.00;;;;;;5079575;28;20489;-82
2023/11/01 00:06:20;;;;;;;11.17;10.87;;;11.40;99.90;;;;;;5081691;28;20484;-82
2023/11/01 00:08:49;;;;;;;10.77;10.50;;;11.40;1.00;;;;;;5076409;28;20470;-84
2023/11/01 00:11:17;;;;;;;10.97;10.67;;;11.40;1.00;;;;;;5078474;28;20470;-85
2023/11/01 00:13:46;;;;;;;11.33;10.93;;;11.40;1.00;;;;;;5082468;28;20469;-83
2023/11/01 00:16:14;;;;;;;10.77;10.47;;;11.40;1.00;;;;;;5079044;28;20453;-84
2023/11/01 00:18:44;;;;;;;11.17;10.87;;;11.40;99.90;;;;;;5076341;28;20480;-85
2023/11/01 00:21:13;;;;;;;11.27;10.97;;;11.40;1.00;;;;;;5081424;28;20899;-83
2023/11/01 00:23:42;;;;;;;10.93;10.63;;;11.40;99.90;;;;;;5080157;28;20454;-84
2023/11/01 00:26:10;;;;;;;11.87;11.50;;;11.40;1.00;;;;;;5077799;28;20886;-83
2023/11/01 00:28:38;;;;;;;11.20;11.00;;;11.40;99.90;;;;;;5079196;28;20488;-84
2023/11/01 00:31:07;;;;;;;11.20;11.00;;;11.40;99.90;;;;;;5082635;28;20454;-83
2023/11/01 00:33:35;;;;;;;11.70;11.30;;;11.50;1.00;;;;;;5081739;28;20454;-85
2023/11/01 00:36:04;;;;;;;11.47;11.13;;;11.50;1.00;;;;;;5079551;28;20578;-83
2023/11/01 00:38:35;;;;;;;11.80;11.30;;;11.50;1.00;;;;;;5073728;28;20474;-83
2023/11/01 00:41:04;;;;;;;11.20;11.00;;;11.60;1.00;;;;;;5072063;28;20451;-84
2023/11/01 00:43:33;;;;;;;11.00;10.70;;;11.60;99.90;;;;;;5072477;28;20446;-84
2023/11/01 00:46:01;;;;;;;12.07;11.67;;;11.60;99.90;;;;;;5077694;28;20486;-83
2023/11/01 00:48:29;;;;;;;11.07;10.77;;;11.60;99.90;;;;;;5072145;28;20579;-83
2023/11/01 00:50:57;;;;;;;10.90;10.70;;;11.70;99.90;;;;;;5072798;28;20461;-82
2023/11/01 00:53:26;;;;;;;11.70;10.93;;;11.60;99.90;;;;;;5075637;28;20454;-84
2023/11/01 00:55:55;;;;;;;11.07;10.40;;;11.70;99.90;;;;;;5075214;28;20458;-83
2023/11/01 00:58:24;;;;;;;11.57;10.80;;;11.70;99.90;;;;;;5072980;28;20506;-83
2023/11/01 01:00:52;;;;;;;10.90;10.60;;;11.70;99.90;;;;;;5078591;28;20949;-84
2023/11/01 01:03:21;;;;;;;10.93;10.53;;;11.80;99.90;;;;;;5083046;28;20461;-84
2023/11/01 01:05:49;;;;;;;11.03;10.70;;;11.80;96.60;;;;;;5072893;28;20476;-85
2023/11/01 01:08:17;;;;;;;10.70;10.50;;;11.80;33.50;;;;;;5075263;28;20560;-84
2023/11/01 01:10:46;;;;;;;10.70;10.50;;;11.70;96.60;;;;;;5078689;28;20446;-84
2023/11/01 01:13:17;;;;;;;11.27;10.87;;;11.70;99.90;;;;;;5074417;28;20495;-81
2023/11/01 01:15:45;;;;;;;10.60;10.40;;;11.60;59.90;;;;;;5080765;28;20884;-84
2023/11/01 01:18:14;;;;;;;10.87;10.67;;;11.70;99.90;;;;;;5078641;28;20600;-83
2023/11/01 01:20:43;;;;;;;11.17;10.83;;;11.60;99.90;;;;;;5072486;28;20459;-82
2023/11/01 01:23:11;;;;;;;11.20;10.77;;;11.60;99.90;;;;;;5074578;28;20976;-83
2023/11/01 01:25:39;;;;;;;11.63;11.27;;;11.70;66.30;;;;;;5073558;28;20482;-83
2023/11/01 01:28:08;;;;;;;12.10;11.23;;;11.70;71.80;;;;;;5072788;28;20474;-84
2023/11/01 01:30:38;;;;;;;11.20;11.00;;;11.70;57.00;;;;;;5079463;28;20454;-83
2023/11/01 01:33:07;;;;;;;11.37;11.17;;;11.70;1.00;;;;;;5078582;28;20454;-83
2023/11/01 01:35:35;;;;;;;11.90;11.40;;;11.70;1.00;;;;;;5074382;28;20452;-83
2023/11/01 01:38:03;;;;;;;11.53;11.03;;;11.70;1.00;;;;;;5080610;28;20542;-84
2023/11/01 01:40:34;;;;;;;11.37;10.97;;;11.60;1.00;;;;;;5075722;28;20570;-84
2023/11/01 01:43:10;;;;;;;11.27;10.87;;;11.70;1.00;;;;;;5075335;28;20467;-82
2023/11/01 01:45:40;;;;;;;11.07;10.57;;;11.70;1.00;;;;;;5075151;28;21108;-82
2023/11/01 01:48:09;;;;;;;11.77;11.00;;;11.70;1.00;;;;;;5079487;28;20499;-82
2023/11/01 01:50:37;;;;;;;11.40;11.00;;;11.60;1.00;;;;;;5078282;28;20523;-84
2023/11/01 01:53:06;;;;;;;11.23;10.83;;;11.60;1.00;;;;;;5071706;28;20454;-83
2023/11/01 01:55:34;;;;;;;10.90;10.50;;;11.60;1.00;;;;;;5071117;28;20458;-80
2023/11/01 01:58:03;;;;;;;10.73;10.33;;;11.60;1.00;;;;;;5075693;28;20544;-83
2023/11/01 02:00:32;;;;;;;11.10;10.40;;;11.60;1.00;;;;;;5078745;28;20457;-83
2023/11/01 02:03:02;;;;;;;10.63;10.17;;;11.50;1.00;;;;;;5075504;28;20467;-83
2023/11/01 02:05:30;;;;;;;11.20;10.77;;;11.50;1.00;;;;;;5077110;28;20504;-84
2023/11/01 02:08:00;;;;;;;10.77;10.53;;;11.50;1.00;;;;;;5073403;28;20912;-84
2023/11/01 02:10:28;;;;;;;11.30;11.00;;;11.50;1.00;;;;;;5074837;28;20469;-83
2023/11/01 02:12:56;;;;;;;11.33;10.70;;;11.40;1.00;;;;;;5075410;28;20450;-84
2023/11/01 02:15:25;;;;;;;11.40;10.80;;;11.40;99.90;;;;;;5073317;28;20455;-82
2023/11/01 02:17:53;;;;;;;11.47;11.07;;;11.40;99.90;;;;;;5076221;28;20451;-83
2023/11/01 02:20:23;;;;;;;11.93;11.50;;;11.30;77.10;;;;;;5073667;28;20975;-83
2023/11/01 02:22:55;;;;;;;11.07;10.77;;;11.30;99.90;;;;;;5076807;28;20511;-83
2023/11/01 02:25:25;;;;;;;11.20;10.90;;;11.30;99.90;;;;;;5075339;28;20833;-84
2023/11/01 02:27:55;;;;;;;11.30;11.00;;;11.40;99.90;;;;;;5071224;28;20580;-82
2023/11/01 02:30:24;;;;;;;11.23;10.90;;;11.30;99.90;;;;;;5071441;28;20554;-83
2023/11/01 02:32:53;;;;;;;11.10;10.80;;;11.30;99.90;;;;;;5076016;28;20443;-84
2023/11/01 02:35:21;;;;;;;10.80;10.50;;;11.30;33.20;;;;;;5074155;28;20455;-83
2023/11/01 02:37:50;;;;;;;11.20;10.77;;;11.30;58.40;;;;;;5075614;28;20605;-83
2023/11/01 02:40:19;;;;;;;11.00;10.70;;;11.30;99.90;;;;;;5076546;28;20462;-80
2023/11/01 02:42:51;;;;;;;10.73;10.43;;;11.30;98.60;;;;;;5075646;28;20458;-82
2023/11/01 02:45:19;;;;;;;11.03;10.63;;;11.30;99.90;;;;;;5074129;28;20517;-84
2023/11/01 02:47:48;;;;;;;10.80;10.43;;;11.20;99.90;;;;;;5070258;28;20486;-82
2023/11/01 02:50:19;;;;;;;11.17;10.70;;;11.10;99.90;;;;;;5080899;28;20446;-83
2023/11/01 02:52:49;;;;;;;11.00;10.70;;;11.20;99.90;;;;;;5079793;28;20936;-85
2023/11/01 02:55:17;;;;;;;10.50;10.17;;;11.20;99.90;;;;;;5076687;28;20724;-83
2023/11/01 02:57:46;;;;;;;10.60;10.30;;;11.20;99.90;;;;;;5079292;28;20459;-79
2023/11/01 03:00:19;;;;;;;11.37;10.87;;;11.20;99.90;;;;;;5077611;28;20457;-81
2023/11/01 03:02:49;;;;;;;11.07;10.87;;;11.10;99.90;;;;;;5078962;28;20525;-82
2023/11/01 03:05:18;;;;;;;10.70;10.50;;;11.20;99.90;;;;;;5070800;28;20470;-82
2023/11/01 03:07:46;;;;;;;11.60;11.10;;;11.10;99.90;;;;;;5076403;28;20506;-79
2023/11/01 03:10:15;;;;;;;11.23;10.83;;;11.10;99.90;;;;;;5075825;28;20463;-83
2023/11/01 03:12:43;;;;;;;11.70;11.30;;;11.10;99.90;;;;;;5078885;28;20468;-82
2023/11/01 03:15:12;;;;;;;11.93;11.37;;;11.20;99.90;;;;;;5077110;28;20537;-83
2023/11/01 03:17:43;;;;;;;11.17;10.77;;;11.10;99.90;;;;;;5078121;28;20996;-83
2023/11/01 03:20:12;;;;;;;11.13;10.73;;;11.10;99.90;;;;;;5078653;28;20449;-83
2023/11/01 03:22:40;;;;;;;11.70;11.07;;;11.00;99.90;;;;;;5077834;28;20541;-81
2023/11/01 03:25:09;;;;;;;11.10;10.80;;;11.00;99.90;;;;;;5080849;28;20447;-84
2023/11/01 03:27:37;;;;;;;11.30;10.90;;;11.10;99.90;;;;;;5080700;28;20559;-83
2023/11/01 03:30:07;;;;;;;11.60;11.23;;;11.00;99.90;;;;;;5074029;28;20475;-84
2023/11/01 03:32:35;;;;;;;11.60;11.13;;;11.00;99.90;;;;;;5072331;28;20455;-83
2023/11/01 03:35:06;;;;;;;12.03;11.37;;;11.10;99.90;;;;;;5075650;28;20446;-83
2023/11/01 03:37:34;;;;;;;11.30;10.90;;;11.00;99.90;;;;;;5074591;28;20462;-83
2023/11/01 03:40:03;;;;;;;11.80;11.20;;;11.00;99.90;;;;;;5076183;28;20479;-82
2023/11/01 03:42:31;;;;;;;11.70;11.40;;;11.00;99.90;;;;;;5076264;28;20439;-84
2023/11/01 03:45:00;;;;;;;12.13;11.50;;;11.00;99.90;;;;;;5073569;28;20488;-85
2023/11/01 03:47:28;;;;;;;12.10;11.70;;;11.10;1.00;;;;;;5072003;28;20479;-85
2023/11/01 03:49:56;;;;;;;11.30;11.00;;;11.10;1.00;;;;;;5074849;28;20478;-83
2023/11/01 03:52:26;;;;;;;12.30;11.57;;;11.00;1.00;;;;;;5075627;28;20455;-83
2023/11/01 03:54:54;;;;;;;11.90;11.30;;;11.10;1.00;;;;;;5073719;28;20446;-84
2023/11/01 03:57:22;;;;;;;11.77;11.37;;;11.10;1.00;;;;;;5072547;28;20469;-83
2023/11/01 03:59:50;;;;;;;11.33;10.93;;;11.00;1.00;;;;;;5075262;28;20466;-82
2023/11/01 04:02:19;;;;;;;11.43;11.03;;;11.00;1.00;;;;;;5074693;28;20477;-83
2023/11/01 04:04:47;;;;;;;11.87;11.47;;;11.00;1.00;;;;;;5069259;28;20458;-84
2023/11/01 04:07:15;;;;;;;10.97;10.77;;;11.00;1.00;;;;;;5075880;28;20470;-83
2023/11/01 04:09:45;;;;;;;11.73;11.43;;;11.00;1.00;;;;;;5070407;28;20540;-84
2023/11/01 04:12:13;;;;;;;11.67;11.40;;;10.90;1.00;;;;;;5069792;28;20462;-84
2023/11/01 04:14:41;;;;;;;11.80;11.30;;;10.90;1.00;;;;;;5072470;28;20475;-85
2023/11/01 04:17:10;;;;;;;11.83;11.43;;;10.90;1.00;;;;;;5077029;28;20944;-85
2023/11/01 04:19:38;;;;;;;12.33;11.80;;;10.80;1.00;;;;;;5077233;28;20484;-84
2023/11/01 04:22:06;;;;;;;12.50;12.00;;;10.90;1.00;;;;;;5078677;28;20533;-83
2023/11/01 04:24:34;;;;;;;11.60;11.23;;;10.70;7.60;;;;;;5073415;28;20455;-83
2023/11/01 04:27:04;;;;;;;12.30;11.90;;;10.70;99.90;;;;;;5074449;28;21324;-82
2023/11/01 04:29:32;;;;;;;11.47;11.27;;;10.80;15.90;;;;;;5077235;28;20479;-83
2023/11/01 04:32:02;;;;;;;11.90;11.50;;;10.70;18.00;;;;;;5072623;28;20550;-84
2023/11/01 04:34:31;;;;;;;12.33;11.83;;;10.70;99.90;;;;;;5076336;28;20533;-84
2023/11/01 04:36:59;;;;;;;12.27;11.97;;;10.80;99.90;;;;;;5076616;28;21179;-83
2023/11/01 04:39:27;;;;;;;11.70;11.40;;;10.80;33.00;;;;;;5076249;28;20570;-83
2023/11/01 04:41:55;;;;;;;11.87;11.67;;;10.80;28.30;;;;;;5074842;28;20458;-84
2023/11/01 04:44:25;;;;;;;11.93;11.70;;;10.90;1.00;;;;;;5077410;28;20462;-82
2023/11/01 04:46:53;;;;;;;12.00;11.60;;;10.80;1.00;;;;;;5074308;28;20486;-85
2023/11/01 04:49:22;;;;;;;11.40;11.10;;;10.80;1.00;;;;;;5076633;28;21165;-83
2023/11/01 04:51:50;;;;;;;11.90;11.60;;;10.80;1.00;;;;;;5075331;28;20478;-85
2023/11/01 04:54:18;;;;;;;12.10;11.70;;;10.80;1.00;;;;;;5082935;28;20447;-84
2023/11/01 04:56:46;;;;;;;11.90;11.60;;;10.90;1.00;;;;;;5071611;28;20542;-85
2023/11/01 04:59:15;;;;;;;11.80;11.47;;;10.90;1.00;;;;;;5077504;28;21089;-84
2023/11/01 05:01:47;;;;;;;11.93;11.63;;;10.90;1.00;;;;;;5074624;28;20454;-83
2023/11/01 05:04:16;;;;;;;11.60;11.30;;;10.90;1.00;;;;;;5076663;28;20462;-84
2023/11/01 05:06:44;;;;;;;11.27;11.07;;;10.90;1.00;;;;;;5080314;28;20545;-84
2023/11/01 05:09:13;;;;;;;11.60;11.20;;;10.90;1.00;;;;;;5075907;28;20568;-84
2023/11/01 05:11:41;;;;;;;11.57;11.17;;;10.90;1.00;;;;;;5077603;28;20537;-84
2023/11/01 05:14:10;;;;;;;12.20;11.60;;;10.90;1.00;;;;;;5080483;28;20546;-84
2023/11/01 05:16:38;;;;;;;11.87;11.47;;;10.90;1.00;;;;;;5074423;28;20547;-85
2023/11/01 05:19:08;;;;;;;11.70;11.40;;;10.90;99.90;;;;;;5075365;28;20550;-84
2023/11/01 05:21:37;;;;;;;12.73;11.70;;;10.90;99.90;;;;;;5078586;28;20550;-84
2023/11/01 05:24:06;;;;;;;11.43;11.17;;;10.80;99.90;;;;;;5072584;28;20468;-80
2023/11/01 05:26:35;;;;;;;11.83;11.43;;;10.90;99.90;;;;;;5078541;28;20454;-82
2023/11/01 05:29:04;;;;;;;11.50;11.10;;;11.00;99.90;;;;;;5075161;28;20479;-82
2023/11/01 05:31:33;;;;;;;11.80;11.40;;;11.00;99.90;;;;;;5074210;28;20455;-83
2023/11/01 05:34:02;;;;;;;11.77;11.47;;;11.00;99.90;;;;;;5074203;28;20446;-84
2023/11/01 05:36:32;;;;;;;12.20;11.73;;;11.00;99.90;;;;;;5078526;28;20931;-84
2023/11/01 05:39:05;;;;;;;12.10;11.60;;;10.90;99.90;;;;;;5081287;28;20475;-84
2023/11/01 05:41:33;;;;;;;12.70;12.10;;;10.90;99.90;;;;;;5079121;28;20461;-84
2023/11/01 05:44:02;;;;;;;12.37;12.10;;;10.90;99.90;;;;;;5078656;28;20501;-84
2023/11/01 05:46:30;;;;;;;12.17;11.87;;;10.80;99.90;;;;;;5082611;28;20462;-84
2023/11/01 05:48:58;;;;;;;12.60;12.03;;;10.70;99.90;;;;;;5072316;28;20507;-84
2023/11/01 05:51:27;;;;;;;12.80;12.40;;;10.70;99.90;;;;;;5078963;28;20489;-85
2023/11/01 05:53:56;;;;;;;11.93;11.73;;;10.70;99.90;;;;;;5077786;28;20457;-85
2023/11/01 05:56:26;;;;;;;11.83;11.53;;;10.80;99.90;;;;;;5075501;28;20453;-83
2023/11/01 05:58:55;;;;;;;11.90;11.60;;;10.80;99.90;;;;;;5077420;28;20523;-82
2023/11/01 06:01:24;;;;;;;12.20;11.90;;;10.80;99.90;;;;;;5077607;28;20870;-85
2023/11/01 06:03:56;;;;;;;12.13;11.70;;;10.80;99.90;;;;;;5077654;28;20508;-85
2023/11/01 06:06:25;;;;;;;12.07;11.77;;;10.80;99.90;;;;;;5079390;28;20968;-85
2023/11/01 06:08:54;;;;;;;12.03;11.80;;;10.90;99.90;;;;;;5076547;28;20517;-84
2023/11/01 06:11:24;;;;;;;12.50;12.20;;;10.80;99.90;;;;;;5072374;28;20459;-83
2023/11/01 06:13:53;;;;;;;12.87;12.47;;;10.90;99.90;;;;;;5077784;28;20454;-84
2023/11/01 06:16:22;;;;;;;12.60;12.30;;;10.80;99.90;;;;;;5071070;28;20466;-83
2023/11/01 06:18:50;;;;;;;13.20;12.70;;;10.80;99.90;;;;;;5076657;28;20479;-83
2023/11/01 06:21:19;;;;;;;12.40;12.20;;;10.70;99.90;;;;;;5077146;28;20842;-84
2023/11/01 06:23:48;;;;;;;12.50;12.10;;;10.70;99.90;;;;;;5076775;28;20466;-83
2023/11/01 06:26:17;;;;;;;12.70;12.40;;;10.80;99.90;;;;;;5074849;28;20443;-84
2023/11/01 06:28:47;;;;;;;13.20;12.50;;;10.80;99.90;;;;;;5075277;28;20472;-82
2023/11/01 06:31:18;;;;;;;12.40;12.20;;;10.80;99.90;;;;;;5069277;28;20534;-80
2023/11/01 06:33:46;;;;;;;11.73;11.43;;;10.90;99.90;;;;;;5071722;28;21328;-83
2023/11/01 06:36:14;;;;;;;12.30;11.90;;;10.90;99.90;;;;;;5073360;28;20462;-83
2023/11/01 06:38:42;;;;;;;12.10;11.80;;;10.90;99.90;;;;;;5072541;28;21073;-81
2023/11/01 06:41:10;;;;;;;11.83;11.53;;;11.00;99.90;;;;;;5074351;28;20512;-81
2023/11/01 06:43:39;;;;;;;11.90;11.60;;;10.90;99.90;;;;;;5075594;28;21079;-83
2023/11/01 06:46:08;;;;;;;11.17;10.97;;;11.00;99.90;;;;;;5075781;28;20455;-82
2023/11/01 06:48:37;;;;;;;11.70;11.30;;;11.00;99.90;;;;;;5078543;28;20486;-83
2023/11/01 06:51:05;;;;;;;12.30;11.90;;;11.10;99.90;;;;;;5078041;28;20467;-83
2023/11/01 06:53:34;;;;;;;11.13;10.93;;;11.10;99.90;;;;;;5080042;28;20466;-83
2023/11/01 06:56:02;;;;;;;11.17;10.97;;;11.10;99.90;;;;;;5078813;28;20490;-82
2023/11/01 06:58:30;;;;;;;11.67;11.27;;;11.10;90.60;;;;;;5079990;28;20462;-83
2023/11/01 07:00:58;;;;;;;11.47;11.17;;;11.10;88.30;;;;;;5080440;28;20482;-83
2023/11/01 07:03:28;;;;;;;11.40;11.07;;;11.10;73.20;;;;;;5071187;28;20490;-84
2023/11/01 07:05:56;;;;;;;11.50;11.10;;;11.20;76.50;;;;;;5073878;28;20466;-83
2023/11/01 07:08:25;;;;;;;11.20;11.00;;;11.20;65.10;;;;;;5076059;28;20486;-83
2023/11/01 07:10:53;;;;;;;11.53;11.23;;;11.20;54.30;;;;;;5074620;28;20972;-83
2023/11/01 07:13:21;;;;;;;11.37;10.87;;;11.30;54.10;;;;;;5075627;28;20454;-82
2023/11/01 07:15:49;;;;;;;11.13;10.83;;;11.30;21.90;;;;;;5072550;28;20450;-82
2023/11/01 07:18:18;;;;;;;10.70;10.50;;;11.40;40.30;;;;;;5075860;28;20941;-84
2023/11/01 07:20:48;;;;;;;10.90;10.60;;;11.40;1.00;;;;;;5070209;28;20465;-83
2023/11/01 07:23:16;;;;;;;10.97;10.77;;;11.50;1.00;;;;;;5074657;28;21167;-84
2023/11/01 07:25:45;;;;;;;10.80;10.50;;;11.60;1.00;;;;;;5073091;28;20450;-83
2023/11/01 07:28:14;;;;;;;11.20;10.80;;;11.70;1.00;;;;;;5075594;28;20469;-85
2023/11/01 07:30:42;;;;;;;10.60;10.40;;;11.90;1.00;;;;;;5079384;28;20839;-83
2023/11/01 07:33:10;;;;;;;11.00;10.50;;;12.10;1.00;;;;;;5078266;28;20454;-85
2023/11/01 07:35:40;;;;;;;11.67;11.03;;;12.40;1.00;;;;;;5078987;28;20466;-82
2023/11/01 07:38:10;;;;;;;10.90;10.60;;;12.50;1.00;;;;;;5070951;28;20529;-82
2023/11/01 07:40:38;;;;;;;11.37;11.07;;;12.60;1.00;;;;;;5074333;28;20442;-82
2023/11/01 07:43:05;;;;;;;10.43;10.20;;;12.70;1.00;;;;;;5074949;28;20446;-84
2023/11/01 07:45:34;;;;;;;10.97;10.57;;;12.70;1.00;;;;;;5072542;28;20495;-82
2023/11/01 07:48:02;;;;;;;10.50;10.20;;;12.90;1.00;;;;;;5075638;28;20447;-81
2023/11/01 07:50:32;;;;;;;10.43;10.13;;;12.80;1.00;;;;;;5074915;28;20477;-83
2023/11/01 07:53:00;;;;;;;11.20;10.80;;;12.80;1.00;;;;;;5080489;28;20459;-82
2023/11/01 07:55:30;;;;;;;10.40;10.20;;;13.10;1.00;;;;;;5076162;28;20476;-82
2023/11/01 07:57:58;;;;;;;10.87;10.43;;;13.30;1.00;;;;;;5079511;28;20462;-83
2023/11/01 08:00:26;;;;;;;10.67;10.37;;;13.50;99.90;;;;;;5078436;28;20984;-83
2023/11/01 08:02:54;;;;;;;10.50;10.20;;;13.50;99.90;;;;;;5073458;28;21070;-81
2023/11/01 08:05:23;;;;;;;10.60;10.00;;;13.60;99.90;;;;;;5070899;28;20496;-81
2023/11/01 08:07:52;;;;;;;10.00;9.80;;;13.80;99.90;;;;;;5078150;28;20455;-81
2023/11/01 08:10:21;;;;;;;10.27;10.00;;;13.90;99.90;;;;;;5077317;28;20482;-80
2023/11/01 08:12:50;;;;;;;10.10;9.80;;;13.90;99.90;;;;;;5079864;28;20466;-82
2023/11/01 08:15:19;;;;;;;10.77;10.37;;;14.10;99.90;;;;;;5075722;28;20555;-81
2023/11/01 08:17:47;;;;;;;10.20;9.90;;;14.30;99.90;;;;;;5078017;28;20453;-81
2023/11/01 08:20:15;;;;;;;10.80;10.50;;;14.60;99.90;;;;;;5075019;28;20558;-82
2023/11/01 08:22:44;;;;;;;10.50;10.30;;;14.90;99.90;;;;;;5077387;28;20532;-81
2023/11/01 08:25:12;;;;;;;10.20;9.90;;;15.00;99.90;;;;;;5075487;28;20512;-82
2023/11/01 08:27:41;;;;;;;9.70;9.50;;;15.10;99.90;;;;;;5075954;28;20549;-84
2023/11/01 08:30:11;;;;;;;10.07;9.87;;;15.50;99.90;;;;;;5077943;28;20490;-82
2023/11/01 08:32:40;;;;;;;10.83;10.10;;;15.50;99.90;;;;;;5075605;28;20450;-83
2023/11/01 08:35:10;;;;;;;11.20;10.70;;;15.40;99.90;;;;;;5076603;28;20956;-83
2023/11/01 08:37:38;;;;;;;9.30;9.00;;;15.20;99.90;;;;;;5077799;28;20439;-84
2023/11/01 08:40:08;;;;;;;9.30;9.00;;;15.10;99.90;;;;;;5081463;28;20477;-82
2023/11/01 08:42:36;;;;;;;9.37;8.90;;;14.90;99.90;;;;;;5078000;28;20482;-84
2023/11/01 08:45:06;;;;;;;9.17;8.97;;;14.90;99.90;;;;;;5076025;28;20948;-83
2023/11/01 08:47:39;;;;;;;9.47;9.27;;;14.90;99.90;;;;;;5078048;28;20490;-83
2023/11/01 08:50:10;;;;;;;9.13;8.73;;;14.60;99.90;;;;;;5078764;28;20478;-82
2023/11/01 08:52:39;;;;;;;9.50;9.30;;;14.50;99.90;;;;;;5078139;28;20454;-82
2023/11/01 08:55:11;;;;;;;9.33;9.10;;;14.60;99.90;;;;;;5073930;28;20968;-82
2023/11/01 08:57:40;;;;;;;9.77;9.37;;;14.60;99.90;;;;;;5076141;28;20486;-81
2023/11/01 09:00:09;;;;;;;8.10;7.90;;;14.60;99.90;;;;;;5070734;28;20470;-83
2023/11/01 09:02:40;;;;;;;8.40;8.30;;;14.70;99.90;;;;;;5075229;28;20554;-81
2023/11/01 09:05:09;;;;;;;8.80;8.60;;;14.70;99.90;;;;;;5077817;28;20830;-83
2023/11/01 09:07:38;;;;;;;8.80;8.60;;;14.80;99.90;;;;;;5079568;28;20452;-82
2023/11/01 09:10:09;;;;;;;8.00;7.90;;;15.10;99.90;;;;;;5072983;28;20479;-82
2023/11/01 09:12:38;;;;;;;8.57;8.30;;;15.30;99.90;;;;;;5073428;28;20964;-81
2023/11/01 09:15:07;;;;;;;8.73;8.50;;;15.70;99.90;;;;;;5072999;28;20479;-80
2023/11/01 09:17:36;;;;;;;8.53;8.20;;;16.10;99.90;;;;;;5072810;28;20447;-79
2023/11/01 09:20:08;;;;;;;8.40;8.10;;;16.40;99.90;;;;;;5075755;28;20811;-82
2023/11/01 09:22:39;;;;;;;8.48;8.18;;;17.00;99.90;;;;;;5077234;28;20939;-79
2023/11/01 09:25:08;;;;;;;8.20;7.90;;;17.40;99.90;;;;;;5075357;28;20208;-79
2023/11/01 09:27:37;;;;;;;8.27;7.87;;;17.50;99.90;;;;;;5078513;28;20463;-82
2023/11/01 09:30:07;;;;;;;8.30;8.10;;;17.30;99.90;;;;;;5081478;28;20525;-84
2023/11/01 09:32:37;;;;;;;8.40;8.20;;;17.50;99.90;;;;;;5069615;28;20455;-82
2023/11/01 09:35:09;;;;;;;8.80;8.50;;;17.50;99.90;;;;;;5073433;28;20455;-82
2023/11/01 09:37:37;;;;;;;8.60;8.40;;;17.60;99.90;;;;;;5067181;28;20462;-81
2023/11/01 09:40:10;;;;;;;8.23;8.03;;;17.40;99.90;;;;;;5066995;28;20479;-82
2023/11/01 09:42:40;;;;;;;8.50;8.30;;;17.50;99.90;;;;;;5075931;28;20515;-82
2023/11/01 09:45:11;;;;;;;8.23;8.00;;;18.10;99.90;;;;;;5078532;28;20451;-83
2023/11/01 09:47:40;;;;;;;8.60;8.20;;;18.60;99.90;;;;;;5074762;28;20464;-82
2023/11/01 09:50:13;;;;;;;7.80;7.60;;;18.90;99.90;;;;;;5077070;28;20479;-83
2023/11/01 09:52:41;;;;;;;8.40;8.10;;;18.80;99.90;;;;;;5076059;28;20533;-81
2023/11/01 09:55:11;;;;;;;8.07;7.87;;;18.30;99.90;;;;;;5076900;28;20499;-82
2023/11/01 09:57:42;;;;;;;7.30;7.20;;;18.70;99.90;;;;;;5077180;28;20465;-82
2023/11/01 10:00:12;;;;;;;8.00;7.70;;;19.20;99.90;;;;;;5076783;28;21019;-81
2023/11/01 10:02:41;;;;;;;7.40;7.30;;;19.80;99.90;;;;;;5076927;28;20486;-82
2023/11/01 10:05:11;;;;;;;7.43;7.27;;;20.00;99.90;;;;;;5077178;28;20503;-82
2023/11/01 10:07:40;;;;;;;7.50;7.30;;;19.90;99.90;;;;;;5073385;28;20466;-83
2023/11/01 10:10:16;;;;;;;7.50;7.10;;;19.90;99.90;;;;;;5079048;28;20474;-83
2023/11/01 10:12:44;;;;;;;7.20;7.00;;;19.90;99.90;;;;;;5075641;28;20474;-81
2023/11/01 10:15:19;;;;;;;7.97;7.43;;;20.30;99.90;;;;;;5077130;28;20505;-82
2023/11/01 10:17:51;;;;;;;6.93;6.73;;;20.30;99.90;;;;;;5077809;28;20458;-82
2023/11/01 10:20:27;;;;;;;7.60;7.20;;;20.70;99.90;;;;;;5076987;28;20456;-83
2023/11/01 10:22:57;;;;;;;6.87;6.70;;;21.00;99.90;;;;;;5078998;28;21015;-83
2023/11/01 10:25:26;;;;;;;7.43;7.13;;;20.90;99.90;;;;;;5074146;28;21162;-82
2023/11/01 10:27:55;;;;;;;6.73;6.63;;;22.10;99.90;;;;;;5079338;28;20462;-82
2023/11/01 10:30:24;;;;;;;7.00;6.80;;;22.10;99.90;;;;;;5077937;28;20575;-82
2023/11/01 10:32:57;;;;;;;7.03;6.83;;;21.60;99.90;;;;;;5077402;28;20450;-83
2023/11/01 10:35:29;;;;;;;6.57;6.30;;;21.10;99.90;;;;;;5080971;28;20470;-81
2023/11/01 10:37:59;;;;;;;6.80;6.70;;;21.30;99.90;;;;;;5074062;28;20450;-82
2023/11/01 10:40:29;;;;;;;6.90;6.70;;;21.00;99.90;;;;;;5074602;28;20869;-83
2023/11/01 10:42:59;;;;;;;6.90;6.70;;;20.70;99.90;;;;;;5068056;28;20544;-82
2023/11/01 10:45:28;;;;;;;6.53;6.43;;;20.80;99.90;;;;;;5075343;28;20455;-82
2023/11/01 10:47:57;;;;;;;6.70;6.60;;;20.30;99.90;;;;;;5076398;28;21165;-82
2023/11/01 10:50:27;;;;;;;7.20;7.00;;;19.90;99.90;;;;;;5073880;28;20477;-83
2023/11/01 10:52:58;;;;;;;7.03;6.90;;;19.90;99.90;;;;;;5070842;28;21127;-82
2023/11/01 10:55:28;;;;;;;7.57;7.27;;;19.70;99.90;;;;;;5075373;28;20979;-82
2023/11/01 10:57:57;;;;;;;7.17;6.97;;;19.40;99.90;;;;;;5073301;28;20452;-82
2023/11/01 11:00:33;;;;;;;7.67;7.47;;;19.10;99.90;;;;;;5075704;28;20459;-82
2023/11/01 11:03:11;;;;;;;7.80;7.60;;;19.40;99.90;;;;;;5071746;28;20494;-82
2023/11/01 11:05:43;;;;;;;7.53;7.33;;;19.70;99.90;;;;;;5075677;28;20521;-82
2023/11/01 11:08:13;;;;;;;7.67;7.37;;;19.50;99.90;;;;;;5075527;28;20448;-82
2023/11/01 11:10:43;;;;;;;7.33;7.20;;;19.30;99.90;;;;;;5072845;28;20461;-81
2023/11/01 11:13:33;;;;;;;7.93;7.73;;;19.20;99.90;;;;;;5076081;28;20504;-82
2023/11/01 11:16:01;;;;;;;7.90;7.43;;;19.10;99.90;;;;;;5071262;28;20580;-82
2023/11/01 11:18:55;;;;;;;7.07;6.90;;;18.70;99.90;;;;;;5075463;28;20545;-82
2023/11/01 11:21:59;;;;;;;7.43;7.23;;;18.70;99.90;;;;;;5072789;28;20466;-82
2023/11/01 11:24:48;;;;;;;8.10;7.47;;;18.60;99.90;;;;;;5076549;28;20457;-83
2023/11/01 11:27:52;;;;;;;7.20;7.00;;;18.60;99.90;;;;;;5076309;28;20461;-82
2023/11/01 11:30:58;;;;;;;7.90;7.60;;;18.50;99.90;;;;;;5075873;28;20457;-82
2023/11/01 11:33:26;;;;;;;9.33;8.73;;;18.30;99.90;;;;;;5074762;28;20452;-82
2023/11/01 11:36:26;;;;;;;7.00;6.80;;;18.00;99.90;;;;;;5071687;28;20455;-82
2023/11/01 11:38:55;;;;;;;7.33;7.07;;;17.80;99.90;;;;;;5075238;28;21015;-82
2023/11/01 11:41:26;;;;;;;9.50;8.97;;;17.70;99.90;;;;;;5070782;28;20454;-82
2023/11/01 11:44:03;;;;;;;7.40;7.20;;;17.70;99.90;;;;;;5074306;28;20487;-82
2023/11/01 11:46:34;;;;;;;8.00;7.70;;;17.50;99.90;;;;;;5076523;28;20450;-82
2023/11/01 11:49:04;;;;;;;7.30;7.00;;;17.20;99.90;;;;;;5076659;28;20475;-82
2023/11/01 11:51:35;;;;;;;7.97;7.77;;;17.20;99.90;;;;;;5077043;28;20474;-83
2023/11/01 11:54:11;;;;;;;7.00;6.80;;;17.20;99.90;;;;;;5074519;28;20450;-82
2023/11/01 11:56:41;;;;;;;7.40;7.10;;;17.10;99.90;;;;;;5075880;28;20799;-82
2023/11/01 11:59:10;;;;;;;7.20;7.00;;;17.20;99.90;;;;;;5073899;28;20898;-82
2023/11/01 12:01:39;;;;;;;7.63;7.33;;;17.30;99.90;;;;;;5076374;28;20482;-82
2023/11/01 12:04:08;;;;;;;7.67;7.20;;;17.30;99.90;;;;;;5072374;28;20589;-82
2023/11/01 12:06:46;;;;;;;7.63;7.33;;;17.40;99.90;;;;;;5075618;28;20537;-83
2023/11/01 12:09:19;;;;;;;7.10;6.90;;;17.50;99.90;;;;;;5071971;28;20501;-82
2023/11/01 12:11:51;;;;;;;7.50;7.30;;;17.50;99.90;;;;;;5076706;28;20562;-82
2023/11/01 12:14:21;;;;;;;7.10;6.90;;;17.50;99.90;;;;;;5070175;28;20530;-82
2023/11/01 12:16:49;;;;;;;7.10;6.80;;;17.50;99.90;;;;;;5077925;28;20533;-81
2023/11/01 12:19:21;;;;;;;7.50;7.40;;;17.40;99.90;;;;;;5077041;28;20474;-83
2023/11/01 12:21:51;;;;;;;7.37;7.17;;;17.40;99.90;;;;;;5073866;28;20455;-80
2023/11/01 12:24:21;;;;;;;7.10;7.00;;;17.30;99.90;;;;;;5072569;28;20448;-82
2023/11/01 12:27:07;;;;;;;7.00;6.90;;;17.20;99.90;;;;;;5072024;28;20558;-82
2023/11/01 12:29:40;;;;;;;6.90;6.70;;;17.00;99.90;;;;;;5074952;28;20548;-83
2023/11/01 12:32:10;;;;;;;7.70;7.50;;;17.00;99.90;;;;;;5077158;28;20936;-83
2023/11/01 12:34:40;;;;;;;7.33;7.00;;;17.00;99.90;;;;;;5077163;28;20459;-84
2023/11/01 12:37:13;;;;;;;7.17;7.07;;;17.00;99.90;;;;;;5075897;28;20569;-83
2023/11/01 12:40:01;;;;;;;7.30;7.10;;;16.90;99.90;;;;;;5078165;28;20486;-83
2023/11/01 12:42:31;;;;;;;7.43;7.07;;;16.70;99.90;;;;;;5076772;28;20463;-83
2023/11/01 12:45:00;;;;;;;7.80;7.43;;;16.80;99.90;;;;;;5074927;28;20557;-82
2023/11/01 12:47:39;;;;;;;8.30;8.00;;;16.80;99.90;;;;;;5076074;28;20493;-82
2023/11/01 12:50:09;;;;;;;8.07;7.87;;;16.70;99.90;;;;;;5077235;28;20497;-83